Latest Coastal Weather Observations for Willis Island

IDQ60701

Issued at 9:51 pm EST Monday 14 October 2019 (issued every 10 minutes, with the page automatically refreshed every 10 minutes)

About coastal observations | Map of coastal stations | Coastal observations for QLD | Marine services | Other Formats
Station Details ID: 200283 Name: WILLIS ISLAND Lat: -16.29 Lon: 149.97 Height: 9.29 m
Data from the previous 72 hours. | See also: Recent months at Willis Island
Date/Time
EST
Wind Sea
Height
m
Swell Vis
km
Cloud Weather Temp
°C
Press
hPa
Rain since
9am
mm
Dir  Spd
kts
Gust
kts
Height
m
Period
s
Dir
14/09:30pm E 15 18 - - - - - - - 24.3 1016.2 0.0
14/09:00pm E 17 20 - 9.0 - CF 30 Mostly clear Fine 24.6 1016.2 0.0
14/08:30pm ESE 15 18 - - - - - - - 24.6 1016.1 0.0
14/08:00pm ESE 15 18 - - - - - - - 24.6 1015.8 0.0
14/07:30pm ESE 15 18 - - - - - - - 24.6 1015.6 0.0
14/07:00pm ESE 14 17 - - - - - - - 24.7 1015.3 0.0
14/06:30pm ESE 15 17 - - - - - - - 24.6 1015.2 0.0
14/06:00pm ESE 15 17 <0.5 0.4 9 SE 30 Partly cloudy Fine 24.7 1015.1 0.0
14/05:30pm ESE 14 16 - - - - - - - 25.1 1014.8 0.0
14/05:00pm ESE 15 18 - - - - - - - 25.4 1014.6 0.0
14/04:30pm ESE 15 18 - - - - - - - 26.1 1014.4 0.0
14/04:00pm ESE 15 17 - - - - - - - 26.5 1014.4 0.0
14/03:30pm ESE 15 17 - - - - - - - 26.6 1014.4 0.0
14/03:00pm ESE 14 16 <0.5 0.4 8 SE 30 Mostly clear Fine 27.4 1014.6 0.0
14/02:30pm ESE 14 16 - - - - - - - 27.4 1014.7 0.0
14/02:00pm ESE 14 16 - - - - - - - 27.5 1014.9 0.0
14/01:30pm ESE 14 17 - - - - - - - 27.7 1015.2 0.0
14/01:00pm ESE 13 16 - - - - - - - 28.2 1015.6 0.0
14/12:30pm ESE 14 16 - - - - - - - 27.9 1015.8 0.0
14/12:00pm ESE 15 17 <0.5 0.4 8 SE 30 Mostly cloudy Fine 27.9 1016.3 0.0
14/11:30am E 15 17 - - - - - - - 27.2 1016.6 0.0
14/11:00am ESE 15 17 - - - - - - - 27.3 1016.8 0.0
14/10:30am ESE 16 18 - - - - - - - 27.3 1017.1 0.0
14/10:00am ESE 16 19 - - - - - - - 27.4 1017.1 0.0
14/09:30am ESE 16 18 - - - - - - - 27.2 1017.1 0.0
14/09:00am ESE 16 19 1 0.5 9 SE 30 Mostly cloudy Fine 27.0 1017.2 0.0
14/08:30am ESE 16 18 - - - - - - - 26.6 1017.1 0.0
14/08:00am ESE 17 19 - - - - - - - 26.1 1016.8 0.0
14/07:30am ESE 16 19 - - - - - - - 25.7 1016.6 0.0
14/07:00am ESE 16 19 - - - - - - - 25.3 1016.2 0.0
14/06:30am ESE 17 20 - - - - - - - 24.8 1015.8 0.0
14/06:00am ESE 17 19 - - - - - - - 24.4 1015.5 0.0
14/05:30am ESE 16 19 - - - - - - - 24.1 1015.2 0.0
14/05:00am ESE 16 19 - - - - - - - 24.2 1015.0 0.0
14/04:30am ESE 15 19 - - - - - - - 24.2 1014.8 0.0
14/04:00am ESE 14 18 - - - - - - - 24.2 1014.7 0.0
14/03:30am ESE 13 16 - - - - - - - 24.0 1014.8 0.0
14/03:00am ESE 14 17 - - - - - - - 24.1 1014.7 0.0
14/02:30am ESE 15 19 - - - - - - - 24.3 1014.8 0.0
14/02:00am ESE 16 19 - - - - - - - 24.4 1014.9 0.0
14/01:30am ESE 15 19 - - - - - - - 24.4 1015.2 0.0
14/01:00am ESE 15 17 - - - - - - - 24.4 1015.4 0.0
14/12:30am E 17 20 - - - - - - - 24.5 1015.5 0.0
14/12:00am E 15 20 - - - - - - - 24.4 1015.7 0.0
 
Date/Time
EST
Wind Sea
Height
m
Swell Vis
km
Cloud Weather Temp
°C
Press
hPa
Rain since
9am
mm
Dir  Spd
kts
Gust
kts
Height
m
Period
s
Dir
13/11:30pm E 15 17 - - - - - - - 24.7 1016.0 0.0
13/11:00pm E 16 18 - - - - - - - 24.7 1016.3 0.0
13/10:30pm E 15 17 - - - - - - - 24.8 1016.4 0.0
13/10:00pm E 14 16 - - - - - - - 24.9 1016.4 0.0
13/09:30pm E 14 16 - - - - - - - 24.9 1016.5 0.0
13/09:00pm E 14 17 - - - - 30 Mostly clear Fine 25.0 1016.3 0.0
13/08:30pm E 13 16 - - - - - - - 25.1 1016.2 0.0
13/08:00pm ESE 11 13 - - - - - - - 25.0 1015.8 0.0
13/07:30pm ESE 13 15 - - - - - - - 25.0 1015.5 0.0
13/07:00pm ESE 10 13 - - - - - - - 25.0 1015.2 0.0
13/06:30pm ESE 11 14 - - - - - - - 25.1 1014.8 0.0
13/06:00pm SE 12 13 <0.5 0.5 10 E 30 Mostly clear Fine 25.1 1014.4 0.0
13/05:30pm SE 11 14 - - - - - - - 25.7 1013.9 0.0
13/05:00pm E 11 13 - - - - - - - 26.2 1013.6 0.0
13/04:30pm E 9 10 - - - - - - - 26.9 1013.3 0.0
13/04:00pm E 8 9 - - - - - - - 27.2 1013.1 0.0
13/03:30pm E 8 9 - - - - - - - 27.5 1013.0 0.0
13/03:00pm E 7 8 <0.5 0.5 10 E 30 Mostly clear Fine 28.0 1013.3 0.0
13/02:30pm E 7 8 - - - - - - - 28.1 1013.6 0.0
13/02:00pm E 7 10 - - - - - - - 28.4 1013.9 0.0
13/01:30pm E 9 10 - - - - - - - 28.5 1014.1 0.0
13/01:00pm E 8 9 - - - - - - - 28.1 1014.5 0.0
13/12:30pm E 7 9 - - - - - - - 28.2 1015.0 0.0
13/12:00pm E 7 9 <0.5 0.5 10 E 30 Partly cloudy Fine 27.9 1015.3 0.0
13/11:30am E 7 8 - - - - - - - 28.0 1015.7 0.0
13/11:00am E 7 8 - - - - - - - 28.4 1015.9 0.0
13/10:30am E 7 8 - - - - - - - 28.3 1016.0 0.0
13/10:00am E 7 8 - - - - - - - 27.1 1016.1 0.0
13/09:30am E 7 9 - - - - - - - 27.6 1016.2 0.0
13/09:00am E 6 8 <0.5 0.5 10 E 30 Mostly clear Fine 27.9 1016.1 0.0
13/08:30am E 7 8 - - - - - - - 27.2 1016.0 0.0
13/08:00am E 8 9 - - - - - - - 26.1 1015.9 0.0
13/07:30am E 7 8 - - - - - - - 26.6 1015.7 0.0
13/07:00am E 7 8 - - - - - - - 25.2 1015.2 0.0
13/06:30am E 8 9 - - - - - - - 25.2 1014.6 0.0
13/06:00am E 9 11 - - - - - - - 24.5 1014.1 0.0
13/05:30am ENE 9 11 - - - - - - - 24.3 1013.5 0.0
13/05:00am ENE 9 11 - - - - - - - 24.2 1013.1 0.0
13/04:30am NE 9 11 - - - - - - - 24.1 1012.7 0.0
13/04:00am NE 11 12 - - - - - - - 24.1 1012.3 0.0
13/03:30am NE 11 12 - - - - - - - 24.2 1012.2 0.0
13/03:00am NE 11 12 - - - - - - - 24.1 1012.2 0.0
13/02:30am NE 10 11 - - - - - - - 24.1 1012.2 0.0
13/02:00am NE 9 10 - - - - - - - 24.0 1012.3 0.0
13/01:30am NE 8 9 - - - - - - - 24.1 1012.6 0.0
13/01:00am NE 9 10 - - - - - - - 24.3 1012.9 0.0
13/12:30am NE 9 10 - - - - - - - 24.4 1013.2 0.0
13/12:00am NE 9 11 - - - - - - - 24.4 1013.4 0.0
 
Date/Time
EST
Wind Sea
Height
m
Swell Vis
km
Cloud Weather Temp
°C
Press
hPa
Rain since
9am
mm
Dir  Spd
kts
Gust
kts
Height
m
Period
s
Dir
12/11:30pm NE 9 10 - - - - - - - 24.5 1013.7 0.0
12/11:00pm NE 9 10 - - - - - - - 24.5 1013.8 0.0
12/10:30pm NE 6 8 - - - - - - - 24.6 1013.9 0.0
12/10:00pm NE 5 6 - - - - - - - 24.5 1013.9 0.0
12/09:30pm NE 5 6 - - - - - - - 24.6 1013.7 0.0
12/09:00pm NE 3 4 - - - - 30 Mostly clear Fine 24.4 1013.7 0.0
12/08:30pm NE 3 4 - - - - - - - 24.5 1013.2 0.0
12/08:00pm NE 3 4 - - - - - - - 24.5 1012.8 0.0
12/07:30pm NE 4 5 - - - - - - - 24.4 1012.5 0.0
12/07:00pm NE 4 5 - - - - - - - 24.7 1012.2 0.0
12/06:30pm NE 5 6 - - - - - - - 24.9 1011.9 0.0
12/06:00pm NE 6 7 - - - - 30 Mostly clear Fine 25.1 1011.4 0.0
12/05:30pm NE 6 7 - - - - - - - 25.6 1011.0 0.0
12/05:00pm NE 7 8 - - - - - - - 26.1 1010.6 0.0
12/04:30pm NE 6 8 - - - - - - - 26.5 1010.4 0.0
12/04:00pm NE 7 8 - - - - - - - 26.9 1010.2 0.0
12/03:30pm NE 8 9 - - - - - - - 27.2 1010.1 0.0
12/03:00pm NE 7 9 <0.5 0.5 10 E 30 Mostly clear Fine 27.5 1010.4 0.0
12/02:30pm NE 7 8 - - - - - - - 27.5 1010.6 0.0
12/02:00pm NE 6 8 - - - - - - - 26.9 1010.9 0.0
12/01:30pm NE 6 8 - - - - - - - 27.7 1011.1 0.0
12/01:00pm NE 7 9 - - - - - - - 27.9 1011.4 0.0
12/12:30pm NE 6 8 - - - - - - - 27.1 1011.7 0.0
12/12:00pm NE 5 7 <0.5 0.5 10 E 30 Mostly clear Fine 26.7 1012.1 0.0
12/11:30am NE 5 7 - - - - - - - 27.0 1012.6 0.0
12/11:00am NE 5 6 - - - - - - - 26.7 1013.0 0.0
12/10:30am NE 6 7 - - - - - - - 27.1 1013.2 0.0
12/10:00am NE 6 7 - - - - - - - 27.1 1013.3 0.0
12/09:30am NE 6 7 - - - - - - - 26.5 1013.4 0.0
12/09:00am NE 6 8 <0.5 0.5 10 E 30 Mostly clear Fine 26.0 1013.5 0.0
12/08:30am NE 7 8 - - - - - - - 26.3 1013.3 0.0
12/08:00am NE 8 10 - - - - - - - 26.4 1012.9 0.0
12/07:30am NE 9 10 - - - - - - - 25.7 1012.7 0.0
12/07:00am NE 10 11 - - - - - - - 25.2 1012.3 0.0
12/06:30am NE 8 9 - - - - - - - 24.6 1011.9 0.0
12/06:00am NE 9 10 - - - - - - - 24.2 1011.5 0.0
12/05:30am NE 9 10 - - - - - - - 24.1 1011.1 0.0
12/05:00am NE 9 10 - - - - - - - 23.9 1011.0 0.0
12/04:30am NE 7 9 - - - - - - - 24.1 1010.6 0.0
12/04:00am NE 7 9 - - - - - - - 23.9 1010.4 0.0
12/03:30am NE 6 8 - - - - - - - 23.9 1010.3 0.0
12/03:00am NE 7 8 - - - - - - - 23.7 1010.1 0.0
12/02:30am NE 7 9 - - - - - - - 23.8 1010.3 0.0
12/02:00am NE 7 9 - - - - - - - 23.9 1010.7 0.0
12/01:30am ENE 9 11 - - - - - - - 23.9 1011.1 0.0
12/01:00am NE 13 14 - - - - - - - 24.2 1011.1 0.0
12/12:30am NE 14 15 - - - - - - - 24.4 1011.4 0.0
12/12:00am NE 13 14 - - - - - - - 24.3 1011.9 0.0
 
Date/Time
EST
Wind Sea
Height
m
Swell Vis
km
Cloud Weather Temp
°C
Press
hPa
Rain since
9am
mm
Dir  Spd
kts
Gust
kts
Height
m
Period
s
Dir
11/11:30pm NE 10 12 - - - - - - - 24.3 1012.5 0.0
11/11:00pm E 11 13 - - - - - - - 24.4 1012.6 0.0
11/10:30pm E 9 10 - - - - - - - 24.5 1013.0 0.0
11/10:00pm E 7 9 - - - - - - - 24.4 1013.2 0.0

Other formats

Comma delimited format used in spreadsheet applications
http://www.bom.gov.au/fwo/IDQ60701/IDQ60701.94299.axf

JavaScript Object Notation format (JSON) in row-major order
http://www.bom.gov.au/fwo/IDQ60701/IDQ60701.94299.json

Data quality

Most of these data are generated automatically and are frequently updated. Quality checks on data are not normally performed. It is possible for incorrect values to appear. Refer to information at About Latest Weather Observations and please check the disclaimer before using these data.